Time;durP1;ratioP1;P1;durP2;ratioP2;P2;SDS_P1;SDS_P2;PMS_P1;PMS_P2;Temp;Humidity;BMP_temperature;BMP_pressure;BME280_temperature;BME280_humidity;BME280_pressure;Samples;Min_cycle;Max_cycle;Signal;HPM_P1;HPM_P2
2021/03/17 00:00:31;;;;;;;7.95;7.15;;;;;;;4.39;84.95;102557.00;5095112;28;20081;-40
2021/03/17 00:02:57;;;;;;;8.30;7.43;;;;;;;4.41;85.16;102558.66;5094722;28;20537;-40
2021/03/17 00:05:30;;;;;;;9.57;7.57;;;;;;;4.55;85.67;102567.06;5094499;28;20036;-40
2021/03/17 00:07:56;;;;;;;9.73;7.93;;;;;;;4.42;84.90;102573.75;5094372;28;20028;-40
2021/03/17 00:10:23;;;;;;;9.27;8.02;;;;;;;4.46;85.41;102567.09;5095446;28;20074;-40
2021/03/17 00:12:49;;;;;;;7.95;7.03;;;;;;;4.58;86.07;102571.25;5094576;28;20043;-40
2021/03/17 00:15:21;;;;;;;8.32;7.43;;;;;;;4.54;85.42;102575.22;5094426;28;20052;-40
2021/03/17 00:17:47;;;;;;;9.77;8.15;;;;;;;4.52;85.08;102571.84;5094697;28;20127;-40
2021/03/17 00:20:12;;;;;;;8.27;7.38;;;;;;;4.57;85.33;102561.53;5094064;28;20463;-40
2021/03/17 00:22:38;;;;;;;9.30;7.60;;;;;;;4.51;85.48;102575.53;5094485;28;20085;-40
2021/03/17 00:25:05;;;;;;;7.30;6.30;;;;;;;4.57;85.39;102570.41;5094141;28;20381;-41
2021/03/17 00:27:30;;;;;;;7.13;6.30;;;;;;;4.50;84.90;102568.50;5094234;28;20024;-40
2021/03/17 00:29:56;;;;;;;7.03;6.30;;;;;;;4.49;85.33;102573.03;5094850;28;20024;-40
2021/03/17 00:32:21;;;;;;;8.47;6.63;;;;;;;4.45;85.03;102570.78;5094292;28;20400;-40
2021/03/17 00:34:47;;;;;;;6.83;6.00;;;;;;;4.48;85.27;102573.16;5093978;28;20035;-40
2021/03/17 00:37:12;;;;;;;7.20;6.07;;;;;;;4.51;85.25;102580.91;5094138;28;20028;-40
2021/03/17 00:39:37;;;;;;;6.60;5.87;;;;;;;4.45;85.25;102587.69;5094529;28;20103;-40
2021/03/17 00:42:03;;;;;;;6.10;5.50;;;;;;;4.44;85.08;102588.69;5093874;28;20090;-40
2021/03/17 00:44:28;;;;;;;5.40;4.90;;;;;;;4.33;84.88;102589.69;5094590;28;20024;-40
2021/03/17 00:46:53;;;;;;;8.00;5.07;;;;;;;4.34;84.82;102598.56;5093740;28;20044;-40
2021/03/17 00:49:19;;;;;;;5.77;4.37;;;;;;;4.42;84.67;102604.06;5094053;28;20083;-40
2021/03/17 00:51:44;;;;;;;5.27;4.27;;;;;;;4.45;84.79;102603.75;5094518;28;20023;-41
2021/03/17 00:54:10;;;;;;;5.27;4.20;;;;;;;4.43;84.65;102602.22;5094789;28;20024;-41
2021/03/17 00:56:35;;;;;;;4.87;4.37;;;;;;;4.37;84.86;102595.63;5094407;28;20360;-40
2021/03/17 00:59:00;;;;;;;4.80;4.30;;;;;;;4.43;85.02;102600.38;5093849;28;20452;-40
2021/03/17 01:01:26;;;;;;;7.07;4.67;;;;;;;4.33;84.77;102594.22;5093603;28;20055;-40
2021/03/17 01:03:51;;;;;;;5.37;4.87;;;;;;;4.32;84.47;102600.56;5092924;28;20040;-40
2021/03/17 01:06:16;;;;;;;6.57;4.90;;;;;;;4.28;84.38;102601.84;5093779;28;20483;-40
2021/03/17 01:08:42;;;;;;;6.60;5.00;;;;;;;4.29;84.90;102588.31;5093706;28;20024;-40
2021/03/17 01:11:07;;;;;;;6.20;5.30;;;;;;;4.34;84.76;102604.81;5094554;28;20487;-40
2021/03/17 01:13:33;;;;;;;5.10;4.50;;;;;;;4.35;84.91;102592.25;5093660;28;20030;-40
2021/03/17 01:15:58;;;;;;;5.30;4.77;;;;;;;4.42;84.96;102589.81;5094101;28;20143;-40
2021/03/17 01:18:24;;;;;;;5.67;5.07;;;;;;;4.42;84.60;102593.34;5094045;28;20048;-40
2021/03/17 01:20:49;;;;;;;5.83;5.23;;;;;;;4.36;84.01;102589.41;5094417;28;20028;-40
2021/03/17 01:23:15;;;;;;;5.93;5.00;;;;;;;4.29;84.16;102593.66;5093305;28;20099;-40
2021/03/17 01:25:43;;;;;;;5.25;4.72;;;;;;;4.22;84.27;102586.38;5093578;28;20117;-40
2021/03/17 01:28:11;;;;;;;5.40;4.90;;;;;;;4.25;85.13;102597.66;5093205;28;20038;-40
2021/03/17 01:30:40;;;;;;;5.82;5.10;;;;;;;4.21;84.82;102590.06;5092600;28;20032;-40
2021/03/17 01:33:06;;;;;;;6.57;5.38;;;;;;;4.20;85.01;102589.22;5093448;28;20040;-40
2021/03/17 01:35:32;;;;;;;5.47;4.93;;;;;;;4.13;85.19;102594.28;5093146;28;20035;-40
2021/03/17 01:37:58;;;;;;;5.50;5.00;;;;;;;4.25;85.08;102600.31;5093557;28;20365;-40
2021/03/17 01:40:25;;;;;;;5.43;4.90;;;;;;;4.23;85.20;102601.44;5093972;28;20039;-40
2021/03/17 01:42:52;;;;;;;6.70;5.72;;;;;;;4.25;85.13;102603.00;5093613;28;20376;-40
2021/03/17 01:45:17;;;;;;;;;;;;;;;4.36;84.67;102605.50;5094039;28;20036;-40
2021/03/17 01:47:44;;;;;;;5.82;5.20;;;;;;;4.25;84.95;102594.97;5093795;28;19977;-40
2021/03/17 01:50:22;;;;;;;6.32;5.50;;;;;;;4.24;85.51;102601.28;5093611;28;20111;-40
2021/03/17 01:52:48;;;;;;;5.90;5.30;;;;;;;4.28;85.01;102608.03;5094143;28;20384;-40
2021/03/17 01:55:14;;;;;;;6.38;5.75;;;;;;;4.29;84.82;102612.41;5093524;28;20024;-40
2021/03/17 01:57:40;;;;;;;7.63;6.10;;;;;;;4.21;85.22;102623.03;5093106;28;20039;-40
2021/03/17 02:00:09;;;;;;;6.20;5.60;;;;;;;4.25;85.26;102629.78;5093555;28;20028;-40
2021/03/17 02:02:36;;;;;;;6.65;5.72;;;;;;;4.24;85.13;102630.75;5093706;28;20050;-40
2021/03/17 02:05:07;;;;;;;6.75;5.53;;;;;;;4.30;84.97;102642.75;5093727;28;20038;-40
2021/03/17 02:07:32;;;;;;;6.15;5.55;;;;;;;4.32;85.15;102641.59;5093843;28;20438;-40
2021/03/17 02:09:57;;;;;;;6.10;5.50;;;;;;;4.28;85.13;102642.03;5093249;28;20111;-41
2021/03/17 02:12:49;;;;;;;6.50;5.60;;;;;;;4.35;85.02;102651.19;5093643;28;20071;-40
2021/03/17 02:15:39;;;;;;;5.72;5.13;;;;;;;4.31;85.05;102655.97;5093147;28;20059;-40
2021/03/17 02:18:20;;;;;;;5.78;5.18;;;;;;;4.33;85.02;102648.63;5096697;28;20365;-40
2021/03/17 02:21:13;;;;;;;5.60;5.10;;;;;;;4.29;85.24;102649.06;5097561;28;20081;-40
2021/03/17 02:23:59;;;;;;;6.35;5.75;;;;;;;4.27;85.57;102649.22;5096821;28;20040;-40
2021/03/17 02:26:46;;;;;;;5.50;5.00;;;;;;;4.27;85.06;102649.22;5096957;28;20026;-40
2021/03/17 02:29:26;;;;;;;6.82;5.43;;;;;;;4.32;85.38;102633.56;5096583;28;20028;-40
2021/03/17 02:32:04;;;;;;;5.85;5.25;;;;;;;4.26;85.14;102626.09;5096898;28;20024;-40
2021/03/17 02:34:35;;;;;;;5.18;4.68;;;;;;;4.31;85.22;102629.19;5097373;28;20461;-40
2021/03/17 02:37:07;;;;;;;6.00;5.40;;;;;;;4.33;85.24;102624.53;5095404;28;20089;-40
2021/03/17 02:39:51;;;;;;;6.88;5.47;;;;;;;4.33;85.53;102613.81;5096668;28;20461;-40
2021/03/17 02:42:22;;;;;;;5.72;5.13;;;;;;;4.33;85.39;102616.47;5097188;28;20371;-40
2021/03/17 02:45:08;;;;;;;6.05;5.38;;;;;;;4.37;85.50;102614.38;5096156;28;20028;-40
2021/03/17 02:47:43;;;;;;;5.95;5.30;;;;;;;4.32;85.89;102614.81;5096194;28;20379;-40
2021/03/17 02:50:11;;;;;;;5.18;4.68;;;;;;;4.34;85.85;102612.84;5096022;28;20032;-40
2021/03/17 02:52:39;;;;;;;5.85;5.25;;;;;;;4.32;85.83;102609.44;5096224;28;20024;-40
2021/03/17 02:55:07;;;;;;;9.23;5.30;;;;;;;4.33;85.29;102599.56;5095430;28;20047;-40
2021/03/17 02:57:37;;;;;;;5.30;4.80;;;;;;;4.35;85.33;102613.69;5095995;28;20383;-40
2021/03/17 03:00:07;;;;;;;5.43;4.93;;;;;;;4.28;85.57;102602.69;5096116;28;20024;-40
2021/03/17 03:02:33;;;;;;;5.40;4.90;;;;;;;4.36;85.78;102597.44;5095931;28;20027;-40
2021/03/17 03:05:00;;;;;;;5.70;5.10;;;;;;;4.41;85.92;102604.22;5096265;28;20020;-40
2021/03/17 03:07:27;;;;;;;6.10;5.50;;;;;;;4.37;85.41;102601.81;5096695;28;20360;-40
2021/03/17 03:09:53;;;;;;;;;;;;;;;4.46;85.11;102593.91;5096914;28;20032;-40
2021/03/17 03:12:19;;;;;;;6.30;5.70;;;;;;;4.39;85.31;102593.63;5094745;28;19908;-40
2021/03/17 03:14:45;;;;;;;6.75;5.90;;;;;;;4.37;85.68;102596.47;5095675;28;20020;-41
2021/03/17 03:17:12;;;;;;;6.95;6.13;;;;;;;4.39;85.48;102597.16;5095701;28;20076;-40
2021/03/17 03:19:47;;;;;;;7.20;6.50;;;;;;;4.39;86.00;102594.50;5095986;28;20333;-40
2021/03/17 03:22:13;;;;;;;7.80;7.03;;;;;;;4.36;85.89;102596.63;5095695;28;20112;-40
2021/03/17 03:24:40;;;;;;;;;;;;;;;4.46;85.09;102600.09;5096109;28;20578;-40
2021/03/17 03:27:07;;;;;;;7.80;7.00;;;;;;;4.35;86.21;102587.75;5095359;28;20003;-40
2021/03/17 03:29:33;;;;;;;8.18;7.30;;;;;;;4.37;85.54;102583.06;5096060;28;20515;-40
2021/03/17 03:31:59;;;;;;;8.05;7.25;;;;;;;4.36;85.67;102589.41;5095113;28;20032;-40
2021/03/17 03:34:24;;;;;;;8.10;7.30;;;;;;;4.33;85.77;102589.69;5096197;28;20456;-40
2021/03/17 03:36:50;;;;;;;8.20;7.40;;;;;;;4.34;85.86;102591.41;5095245;28;20479;-40
2021/03/17 03:39:17;;;;;;;8.60;7.80;;;;;;;4.36;85.67;102583.22;5095367;28;20028;-40
2021/03/17 03:41:42;;;;;;;8.52;7.68;;;;;;;4.33;85.31;102586.19;5095242;28;20039;-40
2021/03/17 03:44:08;;;;;;;8.98;7.47;;;;;;;4.33;85.57;102583.50;5095564;28;20516;-40
2021/03/17 03:46:34;;;;;;;8.17;7.37;;;;;;;4.31;85.63;102580.16;5094921;28;20039;-40
2021/03/17 03:49:01;;;;;;;8.27;7.47;;;;;;;4.30;85.84;102583.81;5095441;28;20115;-40
2021/03/17 03:51:27;;;;;;;8.45;7.65;;;;;;;4.31;85.97;102585.50;5095556;28;20097;-40
2021/03/17 03:54:07;;;;;;;8.57;7.77;;;;;;;4.29;85.94;102599.00;5093852;28;20422;-41
2021/03/17 03:56:41;;;;;;;7.97;7.20;;;;;;;4.28;86.16;102602.69;5095219;28;20258;-40
2021/03/17 03:59:11;;;;;;;8.23;7.43;;;;;;;4.24;86.11;102600.44;5094922;28;20075;-40
2021/03/17 04:01:47;;;;;;;7.90;7.10;;;;;;;4.24;86.32;102606.66;5094572;28;20067;-41
2021/03/17 04:04:16;;;;;;;10.07;7.40;;;;;;;4.28;85.93;102613.41;5094697;28;20024;-41
2021/03/17 04:06:46;;;;;;;7.97;7.15;;;;;;;4.28;86.12;102613.41;5094752;28;20032;-41
2021/03/17 04:09:13;;;;;;;8.55;7.57;;;;;;;4.29;86.27;102620.44;5094423;28;20032;-41
2021/03/17 04:11:40;;;;;;;8.23;7.43;;;;;;;4.28;86.29;102616.09;5095514;28;20020;-41
2021/03/17 04:14:09;;;;;;;8.35;7.55;;;;;;;4.27;86.26;102616.25;5095371;28;20350;-41
2021/03/17 04:16:36;;;;;;;8.55;7.68;;;;;;;4.26;86.02;102609.19;5095010;28;20097;-41
2021/03/17 04:19:02;;;;;;;10.07;9.05;;;;;;;4.24;86.60;102621.88;5094137;28;20028;-41
2021/03/17 04:21:31;;;;;;;10.00;9.00;;;;;;;4.21;86.72;102614.16;5094545;28;20039;-41
2021/03/17 04:24:02;;;;;;;11.35;9.55;;;;;;;4.21;86.83;102627.53;5094881;28;20028;-41
2021/03/17 04:26:31;;;;;;;11.10;9.93;;;;;;;4.17;87.00;102607.41;5094926;28;20529;-41
2021/03/17 04:28:57;;;;;;;10.98;9.77;;;;;;;4.23;87.10;102617.50;5094568;28;20047;-41
2021/03/17 04:31:24;;;;;;;12.60;11.30;;;;;;;4.21;87.31;102627.53;5094285;28;20024;-41
2021/03/17 04:33:51;;;;;;;13.02;11.50;;;;;;;4.21;87.21;102615.00;5093258;28;20043;-41
2021/03/17 04:36:17;;;;;;;12.90;11.60;;;;;;;4.23;87.11;102618.34;5094973;28;20067;-41
2021/03/17 04:38:43;;;;;;;;;;;;;;;4.30;86.65;102627.50;5094287;28;20032;-41
2021/03/17 04:41:10;;;;;;;14.32;12.45;;;;;;;4.25;87.37;102629.78;5094448;28;19919;-41
2021/03/17 04:43:41;;;;;;;14.05;12.65;;;;;;;4.17;87.94;102623.47;5093746;28;20460;-41
2021/03/17 04:46:09;;;;;;;13.40;12.00;;;;;;;4.26;87.70;102626.09;5095107;28;20372;-41
2021/03/17 04:48:37;;;;;;;14.80;13.30;;;;;;;4.24;87.62;102638.78;5094193;28;20035;-41
2021/03/17 04:51:04;;;;;;;13.85;12.38;;;;;;;4.24;87.75;102633.44;5094047;28;20028;-41
2021/03/17 04:53:30;;;;;;;13.75;12.35;;;;;;;4.28;87.75;102636.66;5093891;28;20027;-41
2021/03/17 04:55:55;;;;;;;13.10;11.70;;;;;;;4.32;87.28;102636.22;5093922;28;20024;-41
2021/03/17 04:58:24;;;;;;;12.87;11.57;;;;;;;4.31;87.32;102639.91;5092792;28;20036;-41
2021/03/17 05:00:50;;;;;;;14.23;12.70;;;;;;;4.32;87.83;102646.94;5093856;28;20020;-41
2021/03/17 05:03:21;;;;;;;14.70;12.38;;;;;;;4.33;88.00;102650.47;5093558;28;20053;-41
2021/03/17 05:05:50;;;;;;;13.93;12.43;;;;;;;4.25;88.36;102651.22;5094587;28;20051;-41
2021/03/17 05:08:17;;;;;;;14.07;12.10;;;;;;;4.28;88.10;102648.22;5094498;28;20114;-41
2021/03/17 05:10:43;;;;;;;13.45;12.05;;;;;;;4.29;88.47;102644.53;5094270;28;20023;-41
2021/03/17 05:13:09;;;;;;;;;;;;;;;4.38;87.28;102645.50;5094093;28;20103;-41
2021/03/17 05:15:35;;;;;;;12.38;10.48;;;;;;;4.27;87.97;102648.38;5094166;28;19923;-41
2021/03/17 05:18:01;;;;;;;11.70;10.50;;;;;;;4.29;88.03;102652.59;5093230;28;20028;-41
2021/03/17 05:20:28;;;;;;;11.50;10.35;;;;;;;4.33;87.69;102651.31;5093543;28;20055;-41
2021/03/17 05:22:54;;;;;;;12.30;10.85;;;;;;;4.34;87.82;102639.63;5093755;28;20032;-41
2021/03/17 05:25:22;;;;;;;11.55;10.45;;;;;;;4.31;88.09;102644.41;5094422;28;20369;-41
2021/03/17 05:27:51;;;;;;;11.68;10.40;;;;;;;4.35;88.33;102638.63;5093421;28;20437;-41
2021/03/17 05:30:18;;;;;;;11.93;10.77;;;;;;;4.34;88.47;102634.28;5093551;28;20031;-41
2021/03/17 05:32:45;;;;;;;11.32;9.63;;;;;;;4.36;88.25;102634.94;5093960;28;20456;-41
2021/03/17 05:35:11;;;;;;;12.48;10.15;;;;;;;4.37;88.08;102627.75;5093515;28;20032;-41
2021/03/17 05:37:38;;;;;;;11.93;10.13;;;;;;;4.41;88.00;102639.03;5093355;28;20028;-41
2021/03/17 05:40:09;;;;;;;11.32;10.23;;;;;;;4.38;88.01;102640.16;5094169;28;20368;-41
2021/03/17 05:42:36;;;;;;;11.88;10.68;;;;;;;4.35;88.01;102630.59;5093847;28;20024;-41
2021/03/17 05:45:02;;;;;;;11.00;9.88;;;;;;;4.42;88.27;102630.00;5093389;28;20140;-41
2021/03/17 05:47:29;;;;;;;11.13;10.02;;;;;;;4.46;88.20;102636.75;5093276;28;20047;-41
2021/03/17 05:49:55;;;;;;;11.63;10.43;;;;;;;4.39;88.40;102640.03;5094294;28;20373;-41
2021/03/17 05:52:21;;;;;;;13.23;9.63;;;;;;;4.42;88.16;102628.16;5097386;28;20024;-41
2021/03/17 05:54:47;;;;;;;11.50;10.32;;;;;;;4.45;88.13;102638.59;5097559;28;20028;-41
2021/03/17 05:57:13;;;;;;;11.47;9.40;;;;;;;4.47;87.86;102643.78;5097138;28;20353;-41
2021/03/17 05:59:39;;;;;;;10.48;9.38;;;;;;;4.47;88.32;102638.44;5097839;28;20035;-41
2021/03/17 06:02:09;;;;;;;10.32;9.32;;;;;;;4.44;88.20;102631.56;5097679;28;20031;-41
2021/03/17 06:04:38;;;;;;;10.15;9.18;;;;;;;4.47;88.00;102633.09;5096865;28;20062;-41
2021/03/17 06:07:09;;;;;;;10.43;9.20;;;;;;;4.47;87.93;102633.91;5096760;28;20028;-41
2021/03/17 06:09:36;;;;;;;9.85;8.93;;;;;;;4.51;87.86;102627.28;5097270;28;20074;-41
2021/03/17 06:12:07;;;;;;;9.27;8.32;;;;;;;4.56;87.72;102618.81;5096919;28;20028;-41
2021/03/17 06:14:34;;;;;;;9.90;8.98;;;;;;;4.57;87.66;102618.66;5096439;28;20466;-41
2021/03/17 06:17:03;;;;;;;9.45;8.45;;;;;;;4.62;87.44;102612.84;5097095;28;20028;-41
2021/03/17 06:19:32;;;;;;;9.52;8.52;;;;;;;4.63;87.50;102611.84;5096557;28;20032;-41
2021/03/17 06:21:59;;;;;;;9.52;8.63;;;;;;;4.61;87.55;102617.38;5096399;28;20042;-41
2021/03/17 06:24:26;;;;;;;9.73;8.80;;;;;;;4.65;87.62;102625.97;5096691;28;20032;-41
2021/03/17 06:26:52;;;;;;;9.38;8.15;;;;;;;4.66;87.48;102627.63;5096903;28;20032;-41
2021/03/17 06:29:17;;;;;;;9.55;7.80;;;;;;;4.67;87.32;102628.47;5097185;28;20039;-41
2021/03/17 06:31:43;;;;;;;7.70;6.90;;;;;;;4.64;87.40;102626.94;5096564;28;20468;-41
2021/03/17 06:34:08;;;;;;;7.47;6.68;;;;;;;4.64;86.92;102630.47;5097422;28;20146;-41
2021/03/17 06:36:55;;;;;;;7.00;6.27;;;;;;;4.72;87.13;102620.84;5097167;28;20111;-41
2021/03/17 06:39:22;;;;;;;7.30;6.10;;;;;;;4.75;87.34;102625.91;5096537;28;20056;-41
2021/03/17 06:41:50;;;;;;;7.63;6.82;;;;;;;4.75;86.77;102633.94;5096206;28;20028;-41
2021/03/17 06:44:22;;;;;;;8.20;6.22;;;;;;;4.75;87.31;102642.81;5096376;28;20036;-41
2021/03/17 06:47:13;;;;;;;6.78;6.10;;;;;;;4.80;87.44;102631.66;5096386;28;20032;-41
2021/03/17 06:49:41;;;;;;;5.97;5.47;;;;;;;4.78;87.28;102637.19;5097103;28;20066;-41
2021/03/17 06:52:32;;;;;;;5.88;5.13;;;;;;;4.78;87.39;102628.25;5096206;28;20056;-41
2021/03/17 06:55:13;;;;;;;6.00;4.90;;;;;;;4.79;86.90;102630.81;5096625;28;20118;-41
2021/03/17 06:57:41;;;;;;;5.35;4.72;;;;;;;4.76;86.85;102622.22;5096025;28;20085;-41
2021/03/17 07:00:27;;;;;;;5.05;4.55;;;;;;;4.76;86.72;102628.44;5096890;28;20425;-41
2021/03/17 07:03:01;;;;;;;5.20;4.68;;;;;;;4.69;87.31;102632.72;5094500;28;20371;-41
2021/03/17 07:05:46;;;;;;;5.20;4.70;;;;;;;4.70;87.46;102638.91;5096715;28;20028;-41
2021/03/17 07:08:31;;;;;;;5.65;4.07;;;;;;;4.67;87.88;102640.03;5096116;28;20372;-41
2021/03/17 07:11:01;;;;;;;4.95;4.07;;;;;;;4.66;87.80;102646.41;5096299;28;20070;-41
2021/03/17 07:13:28;;;;;;;4.72;4.25;;;;;;;4.68;87.60;102647.06;5095721;28;20379;-41
2021/03/17 07:15:59;;;;;;;7.00;4.55;;;;;;;4.72;87.37;102653.00;5094750;28;20052;-41
2021/03/17 07:18:31;;;;;;;4.15;3.78;;;;;;;4.72;87.28;102640.44;5095901;28;20035;-41
2021/03/17 07:21:05;;;;;;;5.88;4.03;;;;;;;4.73;87.46;102644.78;5095715;28;20032;-41
2021/03/17 07:23:44;;;;;;;6.30;4.03;;;;;;;4.77;87.37;102645.34;5095897;28;20028;-41
2021/03/17 07:26:19;;;;;;;4.25;3.30;;;;;;;4.80;87.24;102645.06;5096156;28;20369;-41
2021/03/17 07:28:47;;;;;;;3.83;3.22;;;;;;;4.84;87.15;102647.31;5095535;28;20047;-41
2021/03/17 07:31:36;;;;;;;4.13;3.10;;;;;;;4.81;87.13;102650.25;5095550;28;20060;-41
2021/03/17 07:34:09;;;;;;;3.53;3.03;;;;;;;4.84;87.37;102662.53;5095012;28;20040;-41
2021/03/17 07:36:40;;;;;;;6.35;3.20;;;;;;;4.82;87.43;102675.22;5095685;28;20028;-41
2021/03/17 07:39:09;;;;;;;4.38;3.40;;;;;;;4.82;87.56;102686.78;5095254;28;20115;-41
2021/03/17 07:41:35;;;;;;;4.05;2.85;;;;;;;4.77;87.22;102685.56;5095793;28;20056;-41
2021/03/17 07:44:04;;;;;;;3.17;2.83;;;;;;;4.75;87.83;102684.88;5095193;28;20031;-41
2021/03/17 07:46:31;;;;;;;3.88;3.08;;;;;;;4.68;88.12;102679.25;5095298;28;20032;-41
2021/03/17 07:48:57;;;;;;;3.22;2.60;;;;;;;4.75;88.36;102685.72;5095356;28;20059;-41
2021/03/17 07:51:22;;;;;;;4.45;3.20;;;;;;;4.68;88.36;102684.59;5095179;28;20413;-41
2021/03/17 07:53:52;;;;;;;4.27;3.43;;;;;;;4.70;88.57;102685.31;5094042;28;20036;-41
2021/03/17 07:56:23;;;;;;;3.75;2.88;;;;;;;4.74;88.66;102684.03;5095063;28;20031;-41
2021/03/17 07:58:51;;;;;;;4.15;3.05;;;;;;;4.76;88.86;102684.72;5094813;28;20028;-41
2021/03/17 08:01:17;;;;;;;5.15;3.15;;;;;;;4.73;89.07;102670.75;5094946;28;20028;-41
2021/03/17 08:03:44;;;;;;;;;;;;;;;4.78;88.01;102673.84;5095196;28;20024;-41
2021/03/17 08:06:10;;;;;;;3.28;2.67;;;;;;;4.69;87.36;102672.91;5095114;28;20317;-41
2021/03/17 08:08:36;;;;;;;3.70;2.57;;;;;;;4.67;88.26;102666.84;5094803;28;20028;-41
2021/03/17 08:11:02;;;;;;;3.95;2.65;;;;;;;4.69;87.94;102680.94;5095025;28;20032;-40
2021/03/17 08:13:30;;;;;;;4.68;3.00;;;;;;;4.75;88.59;102685.72;5094205;28;20062;-41
2021/03/17 08:15:56;;;;;;;4.10;2.70;;;;;;;4.74;88.39;102684.03;5094569;28;20044;-41
2021/03/17 08:18:31;;;;;;;3.25;2.75;;;;;;;4.75;88.36;102690.22;5095179;28;20376;-41
2021/03/17 08:20:57;;;;;;;3.75;2.38;;;;;;;4.73;87.75;102701.06;5095311;28;20036;-41
2021/03/17 08:23:39;;;;;;;3.17;2.15;;;;;;;4.75;87.96;102701.78;5094552;28;20028;-41
2021/03/17 08:26:05;;;;;;;4.03;2.08;;;;;;;4.76;87.03;102703.47;5094714;28;20028;-40
2021/03/17 08:28:30;;;;;;;4.03;2.10;;;;;;;4.86;87.25;102712.31;5094647;28;20075;-41
2021/03/17 08:30:57;;;;;;;3.23;2.10;;;;;;;4.90;87.16;102710.19;5094396;28;20028;-41
2021/03/17 08:33:33;;;;;;;4.70;2.10;;;;;;;4.93;85.88;102719.75;5094592;28;20032;-41
2021/03/17 08:36:19;;;;;;;3.67;1.92;;;;;;;4.95;86.04;102717.78;5094078;28;20032;-40
2021/03/17 08:38:48;;;;;;;2.22;1.92;;;;;;;4.86;85.77;102714.16;5093805;28;20131;-40
2021/03/17 08:41:15;;;;;;;2.55;1.50;;;;;;;4.86;85.63;102720.34;5094244;28;20082;-41
2021/03/17 08:43:43;;;;;;;2.33;1.60;;;;;;;4.81;86.70;102728.00;5094091;28;20032;-41
2021/03/17 08:46:15;;;;;;;3.17;1.30;;;;;;;4.80;86.26;102737.03;5094174;28;20028;-41
2021/03/17 08:49:05;;;;;;;3.15;1.40;;;;;;;4.90;86.78;102724.44;5094342;28;20032;-41
2021/03/17 08:51:46;;;;;;;2.15;1.30;;;;;;;5.03;86.31;102734.00;5093546;28;20105;-41
2021/03/17 08:54:30;;;;;;;2.55;1.02;;;;;;;5.12;86.08;102731.25;5094009;28;20028;-41
2021/03/17 08:57:00;;;;;;;2.45;1.50;;;;;;;5.14;85.66;102725.75;5093940;28;20024;-41
2021/03/17 08:59:42;;;;;;;3.58;1.42;;;;;;;5.34;86.43;102734.53;5093938;28;20434;-41
2021/03/17 09:02:25;;;;;;;2.80;1.30;;;;;;;5.47;86.64;102732.34;5093531;28;20032;-41
2021/03/17 09:05:03;;;;;;;2.80;1.10;;;;;;;5.53;86.12;102729.03;5094386;28;20039;-41
2021/03/17 09:07:31;;;;;;;4.60;1.63;;;;;;;5.51;84.95;102731.00;5093533;28;20035;-41
2021/03/17 09:10:18;;;;;;;2.47;1.52;;;;;;;5.57;85.42;102725.06;5094000;28;20038;-41
2021/03/17 09:12:43;;;;;;;3.20;1.40;;;;;;;5.57;84.83;102722.38;5093258;28;20097;-41
2021/03/17 09:15:12;;;;;;;2.57;1.53;;;;;;;5.52;84.51;102726.50;5093863;28;20040;-41
2021/03/17 09:17:50;;;;;;;1.85;1.20;;;;;;;5.49;83.67;102733.00;5093481;28;20028;-41
2021/03/17 09:20:32;;;;;;;2.03;1.10;;;;;;;5.35;82.60;102730.84;5094127;28;20036;-41
2021/03/17 09:22:57;;;;;;;2.90;1.35;;;;;;;5.39;83.69;102726.88;5093837;28;20052;-41
2021/03/17 09:25:22;;;;;;;2.40;1.20;;;;;;;5.38;83.71;102739.44;5093282;28;20488;-41
2021/03/17 09:27:52;;;;;;;3.43;1.37;;;;;;;5.36;84.51;102733.34;5093519;28;20374;-41
2021/03/17 09:30:19;;;;;;;4.13;1.13;;;;;;;5.49;84.38;102734.84;5093278;28;20028;-41
2021/03/17 09:32:45;;;;;;;2.85;1.00;;;;;;;5.69;83.25;102725.66;5093381;28;20034;-41
2021/03/17 09:35:12;;;;;;;2.60;1.20;;;;;;;5.79;84.13;102730.97;5094089;28;20035;-41
2021/03/17 09:37:37;;;;;;;1.30;0.90;;;;;;;5.83;82.11;102729.66;5093341;28;20024;-41
2021/03/17 09:40:05;;;;;;;3.13;1.37;;;;;;;5.81;79.68;102723.59;5093798;28;20024;-41
2021/03/17 09:42:35;;;;;;;2.03;0.80;;;;;;;5.74;79.00;102726.03;5093412;28;20031;-41
2021/03/17 09:45:00;;;;;;;2.38;0.93;;;;;;;5.83;80.03;102722.44;5093928;28;20025;-41
2021/03/17 09:47:29;;;;;;;1.90;0.90;;;;;;;5.92;79.95;102721.56;5093617;28;20024;-41
2021/03/17 09:49:56;;;;;;;4.47;1.13;;;;;;;6.04;79.40;102727.50;5093083;28;20069;-41
2021/03/17 09:52:21;;;;;;;;;;;;;;;6.17;80.62;102727.13;5093727;28;20032;-41
2021/03/17 09:54:47;;;;;;;2.28;1.10;;;;;;;6.17;78.15;102727.97;5093337;28;20352;-41
2021/03/17 09:57:12;;;;;;;3.27;1.20;;;;;;;6.24;77.52;102736.25;5093183;28;20035;-41
2021/03/17 09:59:40;;;;;;;4.97;1.20;;;;;;;6.34;78.28;102726.22;5094135;28;20024;-41
2021/03/17 10:02:09;;;;;;;3.97;1.38;;;;;;;6.40;76.31;102725.63;5093478;28;20020;-41
2021/03/17 10:04:42;;;;;;;9.93;4.45;;;;;;;6.47;74.91;102709.69;5093170;28;20039;-41
2021/03/17 10:07:10;;;;;;;15.27;9.13;;;;;;;6.77;76.46;102719.13;5093226;28;20043;-41
2021/03/17 10:09:36;;;;;;;12.68;5.65;;;;;;;6.95;74.66;102717.19;5093690;28;20134;-41
2021/03/17 10:12:11;;;;;;;5.45;2.30;;;;;;;6.99;74.09;102715.03;5093083;28;20099;-41
2021/03/17 10:14:39;;;;;;;5.70;1.92;;;;;;;6.92;72.15;102705.91;5093487;28;20046;-41
2021/03/17 10:17:07;;;;;;;2.63;1.10;;;;;;;6.90;73.96;102702.53;5093876;28;20093;-41
2021/03/17 10:19:34;;;;;;;4.00;1.00;;;;;;;6.88;72.17;102702.72;5092830;28;20032;-42
2021/03/17 10:22:00;;;;;;;5.07;1.60;;;;;;;6.78;71.16;102703.81;5092788;28;20024;-41
2021/03/17 10:24:38;;;;;;;5.47;1.20;;;;;;;6.69;71.13;102694.88;5093335;28;20409;-41
2021/03/17 10:27:13;;;;;;;2.83;1.27;;;;;;;6.69;72.62;102700.28;5093830;28;20096;-41
2021/03/17 10:29:40;;;;;;;5.40;1.67;;;;;;;6.70;73.57;102699.25;5092875;28;20055;-41
2021/03/17 10:32:08;;;;;;;4.55;2.28;;;;;;;6.50;70.39;102695.13;5092979;28;20073;-41
2021/03/17 10:34:33;;;;;;;3.92;1.63;;;;;;;6.34;70.99;102693.16;5093184;28;20024;-41
2021/03/17 10:37:00;;;;;;;3.92;1.55;;;;;;;6.18;71.38;102702.78;5095135;28;20384;-41
2021/03/17 10:39:26;;;;;;;;;;;;;;;6.28;72.26;102709.91;5097172;28;20032;-41
2021/03/17 10:41:51;;;;;;;4.13;0.90;;;;;;;6.21;74.06;102714.25;5096362;28;19977;-41
2021/03/17 10:44:23;;;;;;;3.73;1.20;;;;;;;6.16;74.52;102720.06;5096992;28;20032;-41
2021/03/17 10:47:03;;;;;;;4.88;1.38;;;;;;;5.99;74.41;102720.94;5096430;28;20111;-41
2021/03/17 10:49:31;;;;;;;5.10;1.10;;;;;;;5.79;76.42;102718.38;5096169;28;20379;-41
2021/03/17 10:51:58;;;;;;;5.70;1.27;;;;;;;5.93;77.90;102714.34;5096217;28;20059;-41
2021/03/17 10:54:35;;;;;;;22.92;16.88;;;;;;;6.07;77.25;102710.25;5096546;28;20024;-41
2021/03/17 10:57:01;;;;;;;16.23;11.55;;;;;;;6.19;77.63;102725.97;5096197;28;20024;-41
2021/03/17 10:59:29;;;;;;;5.38;2.33;;;;;;;6.37;76.89;102706.28;5096468;28;20032;-41
2021/03/17 11:02:14;;;;;;;3.95;1.70;;;;;;;6.57;77.55;102710.44;5096102;28;20450;-41
2021/03/17 11:04:39;;;;;;;4.45;1.70;;;;;;;6.59;75.62;102705.75;5096700;28;20028;-41
2021/03/17 11:07:04;;;;;;;4.03;1.70;;;;;;;6.63;77.35;102709.78;5095728;28;20097;-41
2021/03/17 11:09:39;;;;;;;3.73;1.37;;;;;;;6.50;74.40;102716.63;5096092;28;20031;-41
2021/03/17 11:12:11;;;;;;;6.88;1.20;;;;;;;6.26;73.21;102722.66;5095913;28;20035;-41
2021/03/17 11:14:37;;;;;;;2.80;1.13;;;;;;;6.09;73.56;102727.06;5095300;28;20062;-41
2021/03/17 11:17:07;;;;;;;3.85;1.55;;;;;;;6.08;74.28;102733.44;5095937;28;20400;-41
2021/03/17 11:19:34;;;;;;;4.80;1.60;;;;;;;6.13;74.90;102731.13;5096040;28;20027;-41
2021/03/17 11:21:59;;;;;;;3.53;1.48;;;;;;;6.15;74.37;102724.59;5095720;28;20520;-41
2021/03/17 11:24:25;;;;;;;6.17;2.03;;;;;;;6.26;74.42;102726.19;5095398;28;20111;-41
2021/03/17 11:26:50;;;;;;;6.67;1.57;;;;;;;6.31;73.63;102731.94;5095852;28;20430;-41
2021/03/17 11:29:29;;;;;;;7.20;2.22;;;;;;;6.34;74.63;102722.72;5095867;28;20073;-41
2021/03/17 11:32:05;;;;;;;3.00;1.40;;;;;;;6.53;74.93;102725.19;5096288;28;20035;-40
2021/03/17 11:34:31;;;;;;;3.90;1.50;;;;;;;6.67;74.11;102731.81;5095947;28;20063;-41
2021/03/17 11:36:56;;;;;;;4.13;1.60;;;;;;;6.79;74.48;102722.50;5095441;28;20054;-41
2021/03/17 11:39:21;;;;;;;6.17;2.20;;;;;;;6.91;74.88;102713.13;5095052;28;20428;-41
2021/03/17 11:41:48;;;;;;;9.30;5.23;;;;;;;7.08;74.46;102723.97;5095785;28;20020;-41
2021/03/17 11:44:16;;;;;;;5.57;1.80;;;;;;;7.04;74.36;102717.25;5094828;28;20369;-41